createdAt,value
2018-03-30T00:00:44.177Z,7.28
2018-03-30T00:03:12.422Z,7.39
2018-03-30T00:05:41.555Z,7.26
2018-03-30T00:08:09.828Z,7.09
2018-03-30T00:10:43.850Z,7.22
2018-03-30T00:13:12.111Z,7.20
2018-03-30T00:15:40.381Z,7.21
2018-03-30T00:18:08.704Z,7.15
2018-03-30T00:20:36.948Z,7.20
2018-03-30T00:23:05.220Z,7.08
2018-03-30T00:25:33.486Z,7.15
2018-03-30T00:28:01.745Z,7.15
2018-03-30T00:30:30.024Z,7.18
2018-03-30T00:32:58.282Z,7.32
2018-03-30T00:35:26.551Z,7.33
2018-03-30T00:37:54.816Z,7.47
2018-03-30T00:40:23.103Z,7.49
2018-03-30T00:42:51.364Z,7.55
2018-03-30T00:45:19.623Z,7.33
2018-03-30T00:47:47.897Z,7.50
2018-03-30T00:50:17.016Z,7.56
2018-03-30T00:52:45.315Z,7.46
2018-03-30T00:55:13.571Z,7.55
2018-03-30T00:57:41.839Z,7.42
2018-03-30T01:00:10.092Z,7.57
2018-03-30T01:02:38.355Z,7.68
2018-03-30T01:05:06.616Z,7.74
2018-03-30T01:07:34.883Z,7.69
2018-03-30T01:10:03.203Z,7.84
2018-03-30T01:12:31.464Z,7.82
2018-03-30T01:14:59.723Z,7.87
2018-03-30T01:17:27.988Z,7.81
2018-03-30T01:19:56.251Z,7.66
2018-03-30T01:22:24.508Z,7.74
2018-03-30T01:24:52.796Z,7.85
2018-03-30T01:27:21.059Z,7.93
2018-03-30T01:29:49.312Z,7.93
2018-03-30T01:32:17.587Z,7.84
2018-03-30T01:34:45.848Z,7.80
2018-03-30T01:37:14.115Z,7.99
2018-03-30T01:39:42.376Z,7.72
2018-03-30T01:42:10.654Z,7.72
2018-03-30T01:44:38.911Z,7.80
2018-03-30T01:47:07.191Z,7.60
2018-03-30T01:49:35.447Z,7.60
2018-03-30T01:52:03.716Z,7.64
2018-03-30T01:54:32.076Z,7.85
2018-03-30T01:57:00.356Z,7.66
2018-03-30T01:59:28.628Z,7.51
2018-03-30T02:01:56.888Z,7.58
2018-03-30T02:04:25.159Z,7.56
2018-03-30T02:06:53.420Z,7.51
2018-03-30T02:09:21.690Z,7.55
2018-03-30T02:11:49.953Z,7.51
2018-03-30T02:14:18.232Z,7.41
2018-03-30T02:16:46.483Z,7.29
2018-03-30T02:19:14.759Z,7.31
2018-03-30T02:21:43.035Z,7.40
2018-03-30T02:24:11.291Z,7.54
2018-03-30T02:26:39.556Z,7.49
2018-03-30T02:29:07.814Z,7.63
2018-03-30T02:31:36.079Z,7.68
2018-03-30T02:34:04.336Z,7.46
2018-03-30T02:36:32.635Z,7.41
2018-03-30T02:39:00.888Z,7.70
2018-03-30T02:41:29.156Z,7.58
2018-03-30T02:43:57.424Z,7.59
2018-03-30T02:46:25.675Z,7.68
2018-03-30T02:48:53.945Z,7.67
2018-03-30T02:51:22.196Z,7.77
2018-03-30T02:53:50.460Z,7.76
2018-03-30T02:56:18.719Z,7.81
2018-03-30T02:58:46.996Z,7.74
2018-03-30T03:01:15.259Z,7.74
2018-03-30T03:03:43.504Z,7.88
2018-03-30T03:06:11.764Z,7.78
2018-03-30T03:08:40.033Z,7.56
2018-03-30T03:11:08.287Z,7.59
2018-03-30T03:13:36.543Z,7.57
2018-03-30T03:16:04.811Z,7.59
2018-03-30T03:18:33.063Z,7.52
2018-03-30T03:21:01.328Z,7.48
2018-03-30T03:23:29.598Z,7.69
2018-03-30T03:25:57.862Z,7.85
2018-03-30T03:28:26.111Z,7.78
2018-03-30T03:30:54.372Z,7.85
2018-03-30T03:33:22.636Z,7.96
2018-03-30T03:35:51.381Z,7.83
2018-03-30T03:38:19.644Z,7.89
2018-03-30T03:40:47.910Z,7.95
2018-03-30T03:43:16.180Z,7.84
2018-03-30T03:45:44.438Z,7.78
2018-03-30T03:48:12.707Z,7.69
2018-03-30T03:50:40.968Z,7.67
2018-03-30T03:53:09.222Z,7.78
2018-03-30T03:55:37.485Z,7.81
2018-03-30T03:58:05.739Z,7.82
2018-03-30T04:00:33.995Z,7.65
2018-03-30T04:03:02.255Z,7.65
2018-03-30T04:05:30.520Z,7.65
2018-03-30T04:07:58.776Z,7.61
2018-03-30T04:10:27.060Z,7.57
2018-03-30T04:12:55.319Z,7.73
2018-03-30T04:15:23.576Z,7.72
2018-03-30T04:17:51.843Z,7.80
2018-03-30T04:20:20.107Z,7.83
2018-03-30T04:22:48.376Z,7.63
2018-03-30T04:25:16.627Z,7.73
2018-03-30T04:27:44.891Z,7.72
2018-03-30T04:30:13.148Z,7.80
2018-03-30T04:32:41.419Z,7.65
2018-03-30T04:35:09.676Z,7.69
2018-03-30T04:37:37.932Z,7.44
2018-03-30T04:40:06.191Z,7.56
2018-03-30T04:42:34.444Z,7.60
2018-03-30T04:45:02.711Z,7.68
2018-03-30T04:47:30.963Z,7.69
2018-03-30T04:49:59.249Z,7.74
2018-03-30T04:52:27.483Z,7.70
2018-03-30T04:54:55.756Z,7.90
2018-03-30T04:57:24.008Z,7.64
2018-03-30T04:59:52.268Z,7.60
2018-03-30T05:02:20.536Z,7.31
2018-03-30T05:04:48.801Z,7.28
2018-03-30T05:07:17.076Z,7.18
2018-03-30T05:09:45.331Z,6.95
2018-03-30T05:12:13.595Z,7.00
2018-03-30T05:14:41.852Z,6.99
2018-03-30T05:17:10.123Z,7.11
2018-03-30T05:19:38.381Z,7.02
2018-03-30T05:22:06.689Z,7.07
2018-03-30T05:24:34.906Z,7.14
2018-03-30T05:27:03.166Z,7.34
2018-03-30T05:29:31.439Z,7.25
2018-03-30T05:31:59.699Z,7.44
2018-03-30T05:34:27.973Z,7.53
2018-03-30T05:36:56.226Z,7.80
2018-03-30T05:39:24.507Z,7.84
2018-03-30T05:41:52.768Z,7.84
2018-03-30T05:44:21.029Z,7.73
2018-03-30T05:46:49.293Z,7.54
2018-03-30T05:49:17.558Z,7.74
2018-03-30T05:51:45.815Z,7.87
2018-03-30T05:54:14.067Z,7.63
2018-03-30T05:56:42.334Z,7.76
2018-03-30T05:59:10.590Z,8.00
2018-03-30T06:01:38.867Z,8.13
2018-03-30T06:04:07.128Z,7.93
2018-03-30T06:06:35.388Z,8.11
2018-03-30T06:09:03.660Z,8.14
2018-03-30T06:11:31.920Z,8.06
2018-03-30T06:14:00.184Z,8.15
2018-03-30T06:16:28.445Z,8.03
2018-03-30T06:18:56.707Z,8.11
2018-03-30T06:21:24.962Z,8.01
2018-03-30T06:23:53.228Z,8.11
2018-03-30T06:26:21.495Z,8.06
2018-03-30T06:28:49.757Z,8.08
2018-03-30T06:31:18.015Z,8.22
2018-03-30T06:33:46.271Z,8.18
2018-03-30T06:36:14.536Z,8.21
2018-03-30T06:38:42.791Z,8.28
2018-03-30T06:41:11.056Z,8.23
2018-03-30T06:43:39.315Z,8.56
2018-03-30T06:46:07.580Z,8.71
2018-03-30T06:48:35.839Z,8.83
2018-03-30T06:51:04.104Z,9.36
2018-03-30T06:53:32.359Z,9.43
2018-03-30T06:56:00.615Z,9.66
2018-03-30T06:58:28.883Z,9.86
2018-03-30T07:00:57.143Z,10.19
2018-03-30T07:03:25.419Z,10.66
2018-03-30T07:05:53.682Z,10.96
2018-03-30T07:08:21.976Z,11.20
2018-03-30T07:10:50.264Z,11.36
2018-03-30T07:13:18.526Z,12.15
2018-03-30T07:15:46.804Z,11.02
2018-03-30T07:18:15.059Z,11.21
2018-03-30T07:20:43.328Z,10.96
2018-03-30T07:23:11.596Z,11.61
2018-03-30T07:25:39.940Z,12.09
2018-03-30T07:28:08.208Z,12.39
2018-03-30T07:30:36.496Z,12.34
2018-03-30T07:33:04.755Z,11.34
2018-03-30T07:35:33.020Z,12.56
2018-03-30T07:38:01.303Z,12.18
2018-03-30T07:40:29.560Z,12.44
2018-03-30T07:42:57.822Z,12.42
2018-03-30T07:45:26.087Z,12.89
2018-03-30T07:47:54.355Z,12.47
2018-03-30T07:50:22.615Z,12.51
2018-03-30T07:52:50.900Z,12.24
2018-03-30T07:55:19.160Z,13.12
2018-03-30T07:57:47.421Z,12.49
2018-03-30T08:00:15.692Z,12.99
2018-03-30T08:02:43.957Z,13.03
2018-03-30T08:05:12.232Z,12.73
2018-03-30T08:07:40.503Z,12.91
2018-03-30T08:10:08.771Z,13.34
2018-03-30T08:12:37.044Z,13.50
2018-03-30T08:15:05.308Z,12.58
2018-03-30T08:17:33.575Z,12.88
2018-03-30T08:20:01.847Z,13.58
2018-03-30T08:22:33.375Z,14.12
2018-03-30T08:25:01.669Z,13.55
2018-03-30T08:27:30.175Z,14.75
2018-03-30T08:29:58.486Z,14.12
2018-03-30T08:32:26.759Z,14.98
2018-03-30T08:34:55.027Z,15.14
2018-03-30T08:37:23.303Z,15.57
2018-03-30T08:39:51.660Z,15.03
2018-03-30T08:42:19.932Z,14.18
2018-03-30T08:44:48.309Z,14.06
2018-03-30T08:47:16.631Z,13.71
2018-03-30T08:49:44.907Z,14.09
2018-03-30T08:52:13.187Z,14.88
2018-03-30T08:54:41.461Z,14.44
2018-03-30T08:57:09.725Z,14.57
2018-03-30T08:59:37.996Z,14.27
2018-03-30T09:02:06.264Z,13.91
2018-03-30T09:04:34.548Z,13.87
2018-03-30T09:07:02.836Z,13.80
2018-03-30T09:09:31.115Z,13.97
2018-03-30T09:11:59.395Z,13.64
2018-03-30T09:14:27.679Z,14.24
2018-03-30T09:16:55.952Z,14.32
2018-03-30T09:19:24.258Z,14.68
2018-03-30T09:21:52.568Z,14.28
2018-03-30T09:24:21.112Z,14.11
2018-03-30T09:26:50.048Z,14.33
2018-03-30T09:29:18.308Z,14.92
2018-03-30T09:31:46.580Z,15.58
2018-03-30T09:34:14.916Z,15.84
2018-03-30T09:36:43.187Z,15.61
2018-03-30T09:39:11.469Z,15.73
2018-03-30T09:41:39.759Z,15.68
2018-03-30T09:44:08.172Z,15.10
2018-03-30T09:46:36.502Z,15.32
2018-03-30T09:49:04.772Z,14.68
2018-03-30T09:51:33.055Z,14.94
2018-03-30T09:54:01.321Z,14.65
2018-03-30T09:56:29.605Z,14.53
2018-03-30T09:58:59.392Z,14.91
2018-03-30T10:01:27.653Z,15.28
2018-03-30T10:03:55.943Z,15.52
2018-03-30T10:06:24.187Z,15.70
2018-03-30T10:08:52.463Z,15.67
2018-03-30T10:11:20.757Z,15.21
2018-03-30T10:13:49.040Z,14.85
2018-03-30T10:16:17.303Z,14.82
2018-03-30T10:18:45.641Z,15.17
2018-03-30T10:21:13.844Z,15.56
2018-03-30T10:23:42.108Z,14.70
2018-03-30T10:26:10.379Z,14.55
2018-03-30T10:28:38.660Z,14.46
2018-03-30T10:31:07.003Z,15.19
2018-03-30T10:33:35.268Z,14.57
2018-03-30T10:36:03.561Z,14.46
2018-03-30T10:38:31.816Z,14.94
2018-03-30T10:41:00.103Z,15.79
2018-03-30T10:43:28.363Z,15.51
2018-03-30T10:45:56.631Z,15.86
2018-03-30T10:48:24.896Z,15.40
2018-03-30T10:50:53.166Z,15.35
2018-03-30T10:53:21.430Z,15.78
2018-03-30T10:55:49.707Z,15.17
2018-03-30T10:58:18.015Z,15.11
2018-03-30T11:00:46.279Z,15.08
2018-03-30T11:03:14.554Z,15.48
2018-03-30T11:05:48.367Z,15.13
2018-03-30T11:08:16.652Z,15.20
2018-03-30T11:10:44.925Z,14.96
2018-03-30T11:13:13.229Z,15.26
2018-03-30T11:15:41.491Z,15.20
2018-03-30T11:18:09.764Z,15.29
2018-03-30T11:20:38.025Z,14.95
2018-03-30T11:23:06.300Z,15.22
2018-03-30T11:25:34.568Z,15.11
2018-03-30T11:28:02.891Z,15.11
2018-03-30T11:30:31.168Z,15.14
2018-03-30T11:32:59.440Z,15.12
2018-03-30T11:35:27.720Z,15.08
2018-03-30T11:37:55.993Z,14.63
2018-03-30T11:40:24.848Z,14.70
2018-03-30T11:42:53.112Z,15.01
2018-03-30T11:45:21.388Z,14.92
2018-03-30T11:47:49.652Z,14.73
2018-03-30T11:50:17.933Z,14.62
2018-03-30T11:52:46.209Z,15.18
2018-03-30T11:55:14.474Z,15.50
2018-03-30T11:57:42.740Z,15.15
2018-03-30T12:00:11.020Z,15.17
2018-03-30T12:02:39.310Z,15.94
2018-03-30T12:05:07.576Z,15.39
2018-03-30T12:07:35.844Z,15.14
2018-03-30T12:10:04.111Z,15.79
2018-03-30T12:12:32.429Z,14.77
2018-03-30T12:15:00.697Z,15.20
2018-03-30T12:17:28.969Z,14.76
2018-03-30T12:19:57.244Z,15.08
2018-03-30T12:22:25.510Z,15.75
2018-03-30T12:24:53.788Z,15.40
2018-03-30T12:27:22.059Z,15.60
2018-03-30T12:29:50.335Z,15.27
2018-03-30T12:32:18.640Z,15.43
2018-03-30T12:34:46.903Z,15.19
2018-03-30T12:37:15.164Z,15.26
2018-03-30T12:39:43.436Z,15.08
2018-03-30T12:42:11.736Z,14.99
2018-03-30T12:44:40.017Z,14.88
2018-03-30T12:47:08.280Z,15.06
2018-03-30T12:49:36.555Z,15.06
2018-03-30T12:52:04.828Z,14.96
2018-03-30T12:54:33.104Z,14.83
2018-03-30T12:57:01.374Z,15.08
2018-03-30T12:59:29.651Z,15.52
2018-03-30T13:01:57.937Z,15.55
2018-03-30T13:04:26.221Z,15.39
2018-03-30T13:06:54.483Z,15.15
2018-03-30T13:09:22.753Z,15.28
2018-03-30T13:11:51.017Z,15.06
2018-03-30T13:14:19.350Z,15.17
2018-03-30T13:16:47.571Z,15.34
2018-03-30T13:19:15.843Z,15.18
2018-03-30T13:21:44.125Z,15.01
2018-03-30T13:24:12.395Z,14.88
2018-03-30T13:26:40.700Z,14.73
2018-03-30T13:29:08.940Z,14.67
2018-03-30T13:31:37.213Z,15.09
2018-03-30T13:34:05.495Z,15.13
2018-03-30T13:36:33.780Z,14.96
2018-03-30T13:39:02.044Z,15.06
2018-03-30T13:41:30.339Z,15.01
2018-03-30T13:43:58.630Z,15.27
2018-03-30T13:46:26.892Z,15.08
2018-03-30T13:48:55.540Z,15.09
2018-03-30T13:51:32.284Z,15.38
2018-03-30T13:54:00.555Z,15.28
2018-03-30T13:56:29.731Z,15.31
2018-03-30T13:59:15.441Z,15.29
2018-03-30T14:01:49.248Z,15.44
2018-03-30T14:04:37.956Z,15.20
2018-03-30T14:07:14.664Z,15.06
2018-03-30T14:09:43.716Z,15.16
2018-03-30T14:12:25.549Z,15.21
2018-03-30T14:14:53.828Z,15.22
2018-03-30T14:17:23.912Z,15.29
2018-03-30T14:19:52.963Z,15.32
2018-03-30T14:22:24.751Z,15.07
2018-03-30T14:24:55.779Z,15.01
2018-03-30T14:27:26.675Z,15.01
2018-03-30T14:29:57.659Z,14.71
2018-03-30T14:32:26.763Z,14.91
2018-03-30T14:37:53.511Z,14.66
2018-03-30T14:40:22.707Z,14.78
2018-03-30T14:42:53.716Z,14.92
2018-03-30T14:45:24.130Z,14.68
2018-03-30T14:47:55.816Z,14.83
2018-03-30T14:50:24.900Z,14.87
2018-03-30T14:52:57.060Z,14.81
2018-03-30T14:55:36.167Z,14.94
2018-03-30T14:58:16.299Z,14.92
2018-03-30T15:00:46.301Z,14.77
2018-03-30T15:03:17.119Z,14.64
2018-03-30T15:05:58.197Z,14.96
2018-03-30T15:08:45.723Z,14.73
2018-03-30T15:11:27.450Z,14.89
2018-03-30T15:13:57.112Z,14.89
2018-03-30T15:19:52.144Z,14.93
2018-03-30T15:22:21.032Z,14.98
2018-03-30T15:24:50.097Z,15.08
2018-03-30T15:27:38.198Z,14.90
2018-03-30T15:33:06.771Z,14.66
2018-03-30T15:38:36.616Z,14.92
2018-03-30T15:41:04.875Z,14.90
2018-03-30T15:43:34.816Z,14.54
2018-03-30T15:49:16.012Z,14.72
2018-03-30T15:52:00.084Z,14.92
2018-03-30T15:54:27.803Z,14.94
2018-03-30T15:56:56.079Z,14.71
2018-03-30T15:59:24.347Z,14.63
2018-03-30T16:01:52.611Z,14.68
2018-03-30T16:04:20.880Z,14.51
2018-03-30T16:06:49.148Z,14.22
2018-03-30T16:09:24.123Z,14.29
2018-03-30T16:11:53.854Z,14.20
2018-03-30T16:14:22.131Z,14.32
2018-03-30T16:16:50.395Z,14.31
2018-03-30T16:19:18.136Z,14.42
2018-03-30T16:21:45.873Z,14.47
2018-03-30T16:24:13.605Z,14.54
2018-03-30T16:26:41.330Z,14.48
2018-03-30T16:29:09.083Z,14.31
2018-03-30T16:31:36.826Z,14.23
2018-03-30T16:34:04.552Z,14.19
2018-03-30T16:36:32.284Z,14.05
2018-03-30T16:39:00.034Z,14.04
2018-03-30T16:41:27.483Z,14.19
2018-03-30T16:43:54.974Z,14.13
2018-03-30T16:46:22.411Z,13.97
2018-03-30T16:48:49.862Z,14.04
2018-03-30T16:51:17.318Z,13.93
2018-03-30T16:53:44.760Z,13.94
2018-03-30T16:56:12.216Z,13.87
2018-03-30T16:58:39.688Z,13.77
2018-03-30T17:01:07.149Z,13.47
2018-03-30T17:03:34.599Z,13.45
2018-03-30T17:06:02.056Z,13.63
2018-03-30T17:08:29.505Z,13.32
2018-03-30T17:10:56.966Z,13.16
2018-03-30T17:13:24.433Z,12.91
2018-03-30T17:15:51.883Z,12.89
2018-03-30T17:18:19.380Z,12.99
2018-03-30T17:20:46.836Z,13.02
2018-03-30T17:23:14.283Z,12.79
2018-03-30T17:25:41.728Z,13.16
2018-03-30T17:28:09.300Z,12.88
2018-03-30T17:30:36.860Z,13.06
2018-03-30T17:33:04.341Z,13.03
2018-03-30T17:35:31.789Z,12.94
2018-03-30T17:37:59.243Z,12.52
2018-03-30T17:40:26.692Z,12.61
2018-03-30T17:42:54.180Z,12.46
2018-03-30T17:45:21.624Z,12.29
2018-03-30T17:47:49.080Z,12.17
2018-03-30T17:50:16.523Z,12.27
2018-03-30T17:52:44.000Z,12.37
2018-03-30T17:55:11.446Z,12.36
2018-03-30T17:57:38.899Z,12.10
2018-03-30T18:00:06.340Z,12.09
2018-03-30T18:02:33.795Z,12.07
2018-03-30T18:05:01.236Z,12.14
2018-03-30T18:07:28.705Z,12.06
2018-03-30T18:09:56.144Z,11.91
2018-03-30T18:12:23.601Z,11.91
2018-03-30T18:14:51.056Z,12.01
2018-03-30T18:17:18.576Z,11.95
2018-03-30T18:19:46.078Z,11.88
2018-03-30T18:22:13.529Z,12.02
2018-03-30T18:24:40.983Z,11.84
2018-03-30T18:27:08.435Z,12.02
2018-03-30T18:29:35.891Z,11.93
2018-03-30T18:32:03.339Z,11.71
2018-03-30T18:34:30.800Z,11.80
2018-03-30T18:36:58.249Z,11.92
2018-03-30T18:39:25.703Z,11.68
2018-03-30T18:41:53.151Z,11.72
2018-03-30T18:44:20.604Z,11.88
2018-03-30T18:46:48.044Z,11.67
2018-03-30T18:49:15.501Z,11.84
2018-03-30T18:51:42.943Z,11.77
2018-03-30T18:54:10.401Z,11.94
2018-03-30T18:56:37.895Z,11.94
2018-03-30T18:59:05.348Z,11.94
2018-03-30T19:01:32.792Z,11.61
2018-03-30T19:04:00.235Z,11.56
2018-03-30T19:06:27.700Z,11.67
2018-03-30T19:08:55.135Z,11.51
2018-03-30T19:11:22.600Z,11.54
2018-03-30T19:13:50.048Z,11.63
2018-03-30T19:16:17.503Z,11.67
2018-03-30T19:18:44.953Z,11.49
2018-03-30T19:21:12.404Z,11.47
2018-03-30T19:23:39.856Z,11.35
2018-03-30T19:26:07.319Z,11.27
2018-03-30T19:28:41.720Z,11.29
2018-03-30T19:31:09.173Z,11.25
2018-03-30T19:33:38.599Z,11.11
2018-03-30T19:36:06.057Z,11.20
2018-03-30T19:38:33.692Z,11.12
2018-03-30T19:41:02.167Z,10.78
2018-03-30T19:43:29.607Z,10.86
2018-03-30T19:46:07.519Z,10.89
2018-03-30T19:48:34.968Z,10.73
2018-03-30T19:51:02.448Z,10.64
2018-03-30T19:53:29.907Z,10.65
2018-03-30T19:55:57.359Z,10.75
2018-03-30T19:58:24.817Z,10.85
2018-03-30T20:00:52.267Z,10.64
2018-03-30T20:03:19.731Z,10.65
2018-03-30T20:05:47.183Z,10.87
2018-03-30T20:08:14.635Z,10.70
2018-03-30T20:10:42.080Z,10.91
2018-03-30T20:13:09.553Z,10.97
2018-03-30T20:15:37.006Z,10.97
2018-03-30T20:18:04.451Z,10.76
2018-03-30T20:20:31.924Z,10.98
2018-03-30T20:22:59.379Z,10.81
2018-03-30T20:25:26.828Z,10.64
2018-03-30T20:27:54.280Z,10.68
2018-03-30T20:30:21.727Z,10.49
2018-03-30T20:32:49.203Z,10.47
2018-03-30T20:35:16.658Z,10.55
2018-03-30T20:37:44.095Z,10.70
2018-03-30T20:40:11.547Z,10.75
2018-03-30T20:42:39.029Z,10.79
2018-03-30T20:45:06.472Z,10.77
2018-03-30T20:47:33.943Z,10.74
2018-03-30T20:50:01.405Z,10.86
2018-03-30T20:52:28.876Z,10.63
2018-03-30T20:54:56.341Z,10.45
2018-03-30T20:57:23.795Z,10.41
2018-03-30T20:59:51.256Z,10.62
2018-03-30T21:02:18.699Z,10.34
2018-03-30T21:04:46.315Z,10.36
2018-03-30T21:07:13.740Z,10.33
2018-03-30T21:09:41.188Z,10.33
2018-03-30T21:12:08.641Z,10.45
2018-03-30T21:14:36.109Z,10.32
2018-03-30T21:17:03.559Z,10.42
2018-03-30T21:19:31.021Z,10.47
2018-03-30T21:21:58.463Z,10.54
2018-03-30T21:24:25.920Z,10.42
2018-03-30T21:26:53.428Z,10.53
2018-03-30T21:29:20.916Z,10.49
2018-03-30T21:31:48.355Z,10.53
2018-03-30T21:34:15.832Z,10.70
2018-03-30T21:36:43.293Z,10.66
2018-03-30T21:39:10.761Z,10.63
2018-03-30T21:41:38.224Z,10.65
2018-03-30T21:44:05.681Z,10.46
2018-03-30T21:46:33.148Z,10.65
2018-03-30T21:49:00.612Z,10.81
2018-03-30T21:51:28.065Z,10.78
2018-03-30T21:53:55.512Z,10.96
2018-03-30T21:56:22.968Z,10.91
2018-03-30T21:58:50.419Z,10.92
2018-03-30T22:01:17.893Z,10.70
2018-03-30T22:03:45.339Z,10.83
2018-03-30T22:06:12.783Z,10.84
2018-03-30T22:08:40.240Z,10.72
2018-03-30T22:11:07.695Z,10.71
2018-03-30T22:13:35.148Z,10.56
2018-03-30T22:16:02.603Z,10.53
2018-03-30T22:18:30.059Z,10.54
2018-03-30T22:20:57.515Z,10.47
2018-03-30T22:23:24.991Z,10.52
2018-03-30T22:25:52.439Z,10.38
2018-03-30T22:28:19.903Z,10.51
2018-03-30T22:30:47.351Z,10.36
2018-03-30T22:33:14.851Z,10.32
2018-03-30T22:35:42.251Z,10.25
2018-03-30T22:38:09.712Z,10.16
2018-03-30T22:40:37.160Z,9.89
2018-03-30T22:43:04.611Z,10.01
2018-03-30T22:45:32.060Z,10.11
2018-03-30T22:47:59.516Z,10.14
2018-03-30T22:50:26.956Z,10.39
2018-03-30T22:52:54.420Z,10.27
2018-03-30T22:55:21.866Z,10.35
2018-03-30T22:57:49.311Z,10.31
2018-03-30T23:00:16.789Z,10.15
2018-03-30T23:02:44.236Z,9.93
2018-03-30T23:05:11.992Z,9.77
2018-03-30T23:07:39.711Z,9.85
2018-03-30T23:10:07.439Z,9.75
2018-03-30T23:12:35.176Z,9.79
2018-03-30T23:15:02.907Z,9.97
2018-03-30T23:17:30.638Z,9.92
2018-03-30T23:19:58.372Z,10.08
2018-03-30T23:22:26.097Z,9.90
2018-03-30T23:24:53.831Z,9.89
2018-03-30T23:27:21.582Z,9.92
2018-03-30T23:29:49.315Z,9.75
2018-03-30T23:32:17.038Z,9.98
2018-03-30T23:34:44.776Z,9.92
2018-03-30T23:37:12.505Z,9.80
2018-03-30T23:39:40.245Z,9.90
2018-03-30T23:42:08.007Z,9.59
2018-03-30T23:44:35.677Z,9.75
2018-03-30T23:47:03.405Z,9.68
2018-03-30T23:49:31.137Z,9.40
2018-03-30T23:51:58.867Z,9.61
2018-03-30T23:54:26.593Z,9.79
2018-03-30T23:56:54.323Z,9.40
2018-03-30T23:59:22.047Z,9.43
